createdAt,value
2018-08-13T00:00:19.456Z,51.40
2018-08-13T00:02:46.760Z,51.50
2018-08-13T00:05:13.757Z,51.70
2018-08-13T00:07:40.716Z,51.60
2018-08-13T00:10:07.727Z,52.00
2018-08-13T00:12:34.713Z,52.30
2018-08-13T00:15:01.715Z,52.70
2018-08-13T00:17:28.774Z,53.20
2018-08-13T00:19:55.786Z,53.40
2018-08-13T00:22:22.778Z,53.80
2018-08-13T00:24:49.968Z,53.90
2018-08-13T00:27:16.948Z,54.10
2018-08-13T00:29:43.938Z,54.20
2018-08-13T00:32:10.912Z,54.40
2018-08-13T00:34:37.870Z,53.80
2018-08-13T00:37:04.811Z,55.00
2018-08-13T00:39:31.775Z,55.00
2018-08-13T00:41:58.762Z,55.20
2018-08-13T00:44:25.737Z,55.30
2018-08-13T00:46:52.795Z,55.90
2018-08-13T00:49:19.740Z,55.20
2018-08-13T00:51:46.732Z,55.30
2018-08-13T00:54:14.186Z,55.30
2018-08-13T00:56:41.170Z,55.30
2018-08-13T00:59:08.120Z,55.40
2018-08-13T01:01:35.111Z,55.50
2018-08-13T01:04:02.118Z,55.30
2018-08-13T01:06:29.099Z,55.30
2018-08-13T01:08:56.084Z,55.40
2018-08-13T01:11:23.062Z,55.50
2018-08-13T01:13:50.110Z,56.40
2018-08-13T01:16:17.112Z,55.90
2018-08-13T01:18:44.085Z,56.20
2018-08-13T01:30:59.655Z,56.10
2018-08-13T01:33:26.693Z,57.90
2018-08-13T01:35:53.681Z,58.20
2018-08-13T01:38:20.668Z,58.50
2018-08-13T01:40:47.654Z,59.20
2018-08-13T01:43:14.635Z,59.00
2018-08-13T02:12:40.902Z,58.90
2018-08-13T02:15:07.936Z,63.00
2018-08-13T02:17:34.909Z,63.20
2018-08-13T02:20:01.896Z,63.90
2018-08-13T02:22:28.950Z,64.40
2018-08-13T02:24:55.983Z,65.60
2018-08-13T02:39:38.451Z,65.00
2018-08-13T02:42:05.445Z,65.50
2018-08-13T02:44:32.484Z,64.40
2018-08-13T02:46:59.541Z,64.50
2018-08-13T02:49:26.546Z,65.00
2018-08-13T02:51:53.577Z,65.40
2018-08-13T02:54:20.616Z,66.10
2018-08-13T02:56:47.577Z,66.20
2018-08-13T02:59:14.602Z,66.30
2018-08-13T03:01:42.089Z,66.20
2018-08-13T03:04:09.030Z,65.70
2018-08-13T03:06:35.998Z,66.00
2018-08-13T03:09:06.739Z,65.80
2018-08-13T03:11:33.755Z,65.80
2018-08-13T03:14:00.729Z,66.10
2018-08-13T03:16:27.812Z,66.20
2018-08-13T03:18:54.780Z,65.40
2018-08-13T03:21:21.854Z,66.20
2018-08-13T03:23:48.833Z,66.10
2018-08-13T03:26:15.848Z,65.90
2018-08-13T03:28:43.054Z,65.30
2018-08-13T03:31:10.032Z,65.00
2018-08-13T03:33:37.093Z,65.30
2018-08-13T03:36:04.090Z,64.80
2018-08-13T03:38:31.046Z,65.40
2018-08-13T03:40:58.085Z,65.10
2018-08-13T03:43:25.076Z,65.40
2018-08-13T05:16:39.611Z,65.60
2018-08-13T05:19:06.678Z,59.00
2018-08-13T05:21:33.652Z,56.90
2018-08-13T05:24:00.627Z,55.60
2018-08-13T05:26:27.640Z,54.60
2018-08-13T05:28:54.674Z,54.00
2018-08-13T05:31:21.677Z,53.80
2018-08-13T05:33:48.641Z,53.30
2018-08-13T05:36:15.664Z,52.70
2018-08-13T05:38:42.595Z,51.70
2018-08-13T05:41:09.546Z,51.20
2018-08-13T05:43:36.578Z,51.30
2018-08-13T05:46:03.512Z,51.70
2018-08-13T05:48:30.557Z,52.00
2018-08-13T05:50:57.509Z,51.50
2018-08-13T05:53:24.525Z,51.60
2018-08-13T05:55:51.929Z,50.70
2018-08-13T05:58:18.930Z,50.50
2018-08-13T06:00:45.963Z,50.20
2018-08-13T06:03:13.029Z,49.70
2018-08-13T06:05:40.017Z,50.20
2018-08-13T06:08:07.007Z,48.70
2018-08-13T06:10:33.972Z,48.30
2018-08-13T06:13:00.924Z,48.10
2018-08-13T06:15:27.918Z,47.40
2018-08-13T06:17:55.242Z,47.50
2018-08-13T06:20:22.303Z,47.20
2018-08-13T06:22:49.292Z,46.10
2018-08-13T06:25:16.336Z,45.50
2018-08-13T06:27:43.359Z,43.80
2018-08-13T06:30:12.472Z,43.00
2018-08-13T06:32:40.298Z,41.00
2018-08-13T06:37:34.439Z,39.30
2018-08-13T06:40:01.542Z,37.10
2018-08-13T16:20:23.820Z,41.60
2018-08-13T16:22:50.833Z,50.10
2018-08-13T16:25:17.930Z,52.30
2018-08-13T16:27:45.544Z,50.50
2018-08-13T16:30:17.666Z,50.90
2018-08-13T16:32:45.554Z,50.70
2018-08-13T16:35:12.505Z,53.10
2018-08-13T16:37:39.572Z,54.30
2018-08-13T16:40:06.610Z,54.60
2018-08-13T16:42:33.608Z,54.80
2018-08-13T16:45:00.844Z,54.00
2018-08-13T16:47:27.822Z,55.30
2018-08-13T16:49:54.890Z,54.90
2018-08-13T16:54:49.062Z,56.50
2018-08-13T17:14:26.451Z,59.60
2018-08-13T17:21:48.045Z,59.30
2018-08-13T17:24:15.062Z,56.60
2018-08-13T17:26:42.286Z,56.60
2018-08-13T17:29:09.355Z,56.70
2018-08-13T17:31:37.102Z,55.90
2018-08-13T17:34:04.498Z,55.60
2018-08-13T17:36:31.373Z,54.60
2018-08-13T17:38:58.385Z,54.90
2018-08-13T17:41:25.355Z,54.40
2018-08-13T17:43:52.570Z,54.10
2018-08-13T17:46:19.649Z,53.90
2018-08-13T17:48:46.637Z,53.70
2018-08-13T17:51:13.766Z,54.00
2018-08-13T17:53:40.757Z,53.60
2018-08-13T17:56:07.733Z,53.60
2018-08-13T17:58:34.811Z,53.00
2018-08-13T18:01:01.885Z,53.20
2018-08-13T18:03:28.816Z,54.40
2018-08-13T18:05:55.770Z,54.50
2018-08-13T18:08:22.742Z,55.40
2018-08-13T18:10:50.062Z,56.30
2018-08-13T18:13:17.045Z,56.30
2018-08-13T18:15:44.102Z,56.30
2018-08-13T18:18:11.061Z,55.80
2018-08-13T18:20:38.048Z,56.00
2018-08-13T18:23:05.107Z,55.90
2018-08-13T18:25:32.106Z,55.20
2018-08-13T18:27:59.110Z,55.20
2018-08-13T18:30:27.527Z,55.40
2018-08-13T18:32:54.822Z,55.30
2018-08-13T18:35:21.944Z,55.80
2018-08-13T18:37:48.926Z,56.00
2018-08-13T18:40:21.110Z,56.10
2018-08-13T18:42:48.142Z,56.20
2018-08-13T18:45:15.392Z,56.20
2018-08-13T18:47:42.399Z,56.60
2018-08-13T18:50:12.546Z,56.80
2018-08-13T18:52:39.692Z,57.50
2018-08-13T18:55:07.242Z,57.80
2018-08-13T18:57:34.266Z,56.80
2018-08-13T19:14:43.786Z,58.20
2018-08-13T19:17:10.777Z,59.00
2018-08-13T19:19:37.780Z,58.70
2018-08-13T19:22:04.889Z,60.50
2018-08-13T19:24:32.152Z,60.40
2018-08-13T19:26:59.451Z,59.80
2018-08-13T19:34:20.676Z,60.30
2018-08-13T19:36:47.665Z,62.90
2018-08-13T19:39:14.654Z,62.90
2018-08-13T19:41:42.363Z,64.30
2018-08-13T19:44:09.341Z,64.00
2018-08-13T19:46:36.719Z,65.60
2018-08-13T19:49:04.390Z,66.60
2018-08-13T19:51:31.328Z,66.80
2018-08-13T19:53:58.302Z,66.50
2018-08-13T19:56:25.600Z,67.80
2018-08-13T19:58:52.596Z,67.80
2018-08-13T20:01:19.645Z,67.80
2018-08-13T20:03:46.658Z,67.80
2018-08-13T20:06:13.664Z,66.80
2018-08-13T20:08:40.721Z,69.30
2018-08-13T20:11:07.786Z,69.10
2018-08-13T20:13:34.802Z,70.40
2018-08-13T20:16:01.749Z,70.40
2018-08-13T20:18:28.800Z,70.20
2018-08-13T20:20:55.766Z,72.30
2018-08-13T20:23:22.780Z,71.80
2018-08-13T20:25:49.806Z,74.00
2018-08-13T20:28:16.785Z,75.10
2018-08-13T20:30:43.703Z,76.10
2018-08-13T20:33:10.685Z,76.70
2018-08-13T20:35:37.690Z,76.40
2018-08-13T20:38:05.069Z,77.10
2018-08-13T20:40:32.099Z,76.50
2018-08-13T20:42:59.065Z,76.00
2018-08-13T20:45:26.090Z,77.20
2018-08-13T20:47:53.422Z,78.20
2018-08-13T20:50:21.991Z,80.50
2018-08-13T20:52:50.347Z,81.10
2018-08-13T20:55:18.793Z,81.40
2018-08-13T20:57:46.779Z,80.90
2018-08-13T21:00:15.187Z,80.50
2018-08-13T21:02:43.753Z,79.90
2018-08-13T21:05:10.790Z,80.30
2018-08-13T21:07:37.753Z,79.00
2018-08-13T21:10:06.717Z,78.40
2018-08-13T21:12:33.712Z,79.30
2018-08-13T21:15:00.741Z,78.60
2018-08-13T21:17:27.776Z,80.90
2018-08-13T21:19:54.806Z,79.60
2018-08-13T21:22:21.776Z,77.20
2018-08-13T21:24:48.827Z,80.50
2018-08-13T21:27:15.816Z,81.40
2018-08-13T21:29:42.844Z,82.50
2018-08-13T21:32:09.842Z,81.60
2018-08-13T21:34:36.897Z,80.10
2018-08-13T21:37:03.839Z,81.10
2018-08-13T21:39:30.870Z,79.80
2018-08-13T21:41:57.915Z,81.20
2018-08-13T21:44:24.962Z,82.40
2018-08-13T21:46:52.229Z,81.90
2018-08-13T21:49:20.581Z,83.50
2018-08-13T21:51:49.697Z,82.50
2018-08-13T21:54:16.805Z,81.30
2018-08-13T21:56:43.811Z,82.20
2018-08-13T21:59:10.849Z,81.30
2018-08-13T22:01:43.599Z,82.90
2018-08-13T22:04:10.565Z,83.00
2018-08-13T22:06:37.591Z,83.80
2018-08-13T22:09:06.541Z,84.40
2018-08-13T22:11:33.523Z,85.50
2018-08-13T22:14:00.578Z,86.60
2018-08-13T22:16:27.515Z,87.10
2018-08-13T22:18:54.580Z,86.30
2018-08-13T22:21:21.558Z,85.00
2018-08-13T22:24:00.372Z,85.00
2018-08-13T22:26:27.328Z,86.20
2018-08-13T22:28:54.364Z,85.30
2018-08-13T22:31:21.704Z,83.00
2018-08-13T22:33:48.679Z,85.50
2018-08-13T22:36:15.722Z,85.40
2018-08-13T22:38:42.738Z,84.80
2018-08-13T22:41:09.715Z,84.20
2018-08-13T22:43:36.685Z,87.00
2018-08-13T22:46:03.670Z,85.90
2018-08-13T22:48:30.642Z,84.50
2018-08-13T22:50:57.569Z,84.80
2018-08-13T22:53:24.517Z,84.50
2018-08-13T22:55:51.538Z,84.50
2018-08-13T22:58:18.499Z,85.60
2018-08-13T23:00:45.793Z,85.70
2018-08-13T23:11:44.923Z,86.30
2018-08-13T23:19:52.806Z,86.20
2018-08-13T23:22:31.012Z,87.00
2018-08-13T23:24:58.013Z,87.10
2018-08-13T23:27:24.953Z,87.80
2018-08-13T23:29:51.916Z,85.00
2018-08-13T23:32:19.039Z,86.00
2018-08-13T23:34:46.029Z,84.00
2018-08-13T23:37:13.034Z,84.00
2018-08-13T23:39:40.094Z,83.00
2018-08-13T23:42:07.141Z,86.00
2018-08-13T23:44:34.126Z,85.80
2018-08-13T23:47:01.142Z,84.20
2018-08-13T23:49:28.113Z,85.40
2018-08-13T23:51:55.161Z,83.10
2018-08-13T23:54:22.153Z,84.00
2018-08-13T23:56:49.120Z,83.60
2018-08-13T23:59:16.134Z,84.50
